Time;durP1;ratioP1;P1;durP2;ratioP2;P2;SDS_P1;SDS_P2;PMS_P1;PMS_P2;Temp;Humidity;BMP_temperature;BMP_pressure;BME280_temperature;BME280_humidity;BME280_pressure;Samples;Min_cycle;Max_cycle;Signal;HPM_P1;HPM_P2
2022/08/11 00:00:18;;;;;;;;;;;22.70;66.60;;;;;;6189106;23;1034;-72
2022/08/11 00:02:45;;;;;;;;;;;22.70;66.60;;;;;;6189117;23;1054;-73
2022/08/11 00:05:11;;;;;;;;;;;22.70;66.60;;;;;;6188997;23;1092;-73
2022/08/11 00:07:44;;;;;;;;;;;22.70;66.60;;;;;;6188636;23;1258;-73
2022/08/11 00:10:10;;;;;;;;;;;22.70;66.70;;;;;;6215336;23;781;-72
2022/08/11 00:12:35;;;;;;;;;;;22.70;66.70;;;;;;6189045;23;820;-73
2022/08/11 00:15:01;;;;;;;;;;;22.70;66.70;;;;;;6163996;23;928;-72
2022/08/11 00:17:27;;;;;;;;;;;22.70;66.70;;;;;;6188458;23;1932;-73
2022/08/11 00:19:53;;;;;;;;;;;22.70;66.70;;;;;;6215427;23;823;-72
2022/08/11 00:22:20;;;;;;;;;;;22.70;66.80;;;;;;6188688;23;1196;-73
2022/08/11 00:24:45;;;;;;;;;;;22.70;66.80;;;;;;6188702;23;820;-73
2022/08/11 00:27:11;;;;;;;;;;;22.70;66.80;;;;;;6163303;23;1267;-73
2022/08/11 00:29:36;;;;;;;;;;;22.70;66.80;;;;;;6188892;23;852;-73
2022/08/11 00:32:02;;;;;;;;;;;22.70;66.90;;;;;;6188781;23;824;-73
2022/08/11 00:34:29;;;;;;;;;;;22.70;66.80;;;;;;6188729;23;903;-72
2022/08/11 00:36:56;;;;;;;;;;;22.70;66.90;;;;;;6188123;23;1880;-73
2022/08/11 00:39:22;;;;;;;;;;;22.70;66.90;;;;;;6188684;23;813;-73
2022/08/11 00:41:58;;;;;;;;;;;22.70;66.90;;;;;;6188794;23;883;-73
2022/08/11 00:44:27;;;;;;;;;;;22.70;66.90;;;;;;6163742;23;1239;-72
2022/08/11 00:46:52;;;;;;;;;;;22.70;66.90;;;;;;6214732;23;1219;-73
2022/08/11 00:49:36;;;;;;;;;;;22.70;66.90;;;;;;6215207;23;978;-73
2022/08/11 00:52:20;;;;;;;;;;;22.70;67.00;;;;;;6215176;23;1002;-73
2022/08/11 00:54:51;;;;;;;;;;;22.70;67.00;;;;;;6215275;23;792;-73
2022/08/11 00:57:38;;;;;;;;;;;22.70;67.00;;;;;;6214865;23;1991;-73
2022/08/11 01:00:11;;;;;;;;;;;22.70;67.00;;;;;;6163659;23;1222;-73
2022/08/11 01:02:37;;;;;;;;;;;22.70;67.00;;;;;;6191602;23;832;-72
2022/08/11 01:05:06;;;;;;;;;;;22.70;67.10;;;;;;6218429;23;884;-73
2022/08/11 01:07:50;;;;;;;;;;;22.70;67.10;;;;;;6191958;23;1172;-73
2022/08/11 01:10:29;;;;;;;;;;;22.70;67.10;;;;;;6218612;23;824;-73
2022/08/11 01:13:00;;;;;;;;;;;22.70;67.10;;;;;;6192219;23;1125;-73
2022/08/11 01:15:31;;;;;;;;;;;22.70;67.10;;;;;;6192413;23;1938;-73
2022/08/11 01:18:16;;;;;;;;;;;22.70;67.10;;;;;;6218524;23;1144;-72
2022/08/11 01:20:41;;;;;;;;;;;22.70;67.20;;;;;;6218507;23;851;-73
2022/08/11 01:23:27;;;;;;;;;;;22.70;67.10;;;;;;6218415;23;835;-73
2022/08/11 01:26:11;;;;;;;;;;;22.70;67.20;;;;;;6141954;23;1204;-73
2022/08/11 01:28:55;;;;;;;;;;;22.70;67.20;;;;;;6218253;23;1223;-73
2022/08/11 01:31:39;;;;;;;;;;;22.70;67.20;;;;;;6218193;23;824;-73
2022/08/11 01:34:24;;;;;;;;;;;22.70;67.20;;;;;;6218428;23;831;-72
2022/08/11 01:36:49;;;;;;;;;;;22.70;67.20;;;;;;6217666;23;1939;-73
2022/08/11 01:39:47;;;;;;;;;;;22.70;67.20;;;;;;6218496;23;799;-73
2022/08/11 01:45:15;;;;;;;;;;;22.70;67.30;;;;;;6195908;23;615;-72
2022/08/11 01:47:52;;;;;;;;;;;22.60;67.30;;;;;;6166294;23;1427;-73
2022/08/11 01:50:29;;;;;;;;;;;22.60;67.30;;;;;;6168350;23;1204;-73
2022/08/11 01:52:57;;;;;;;;;;;22.60;67.30;;;;;;6218295;23;822;-73
2022/08/11 01:55:44;;;;;;;;;;;22.70;67.30;;;;;;6218039;23;1932;-73
2022/08/11 01:58:19;;;;;;;;;;;22.70;67.40;;;;;;6166808;23;1282;-73
2022/08/11 02:00:49;;;;;;;;;;;22.70;67.40;;;;;;6166945;23;1233;-73
2022/08/11 02:03:17;;;;;;;;;;;22.70;67.40;;;;;;6191879;23;845;-73
2022/08/11 02:09:08;;;;;;;;;;;22.60;67.30;;;;;;6155267;23;1017;-73
2022/08/11 02:11:34;;;;;;;;;;;22.60;67.40;;;;;;6218258;23;1021;-72
2022/08/11 02:14:06;;;;;;;;;;;22.70;67.40;;;;;;6190007;23;938;-73
2022/08/11 02:16:31;;;;;;;;;;;22.70;67.50;;;;;;6216142;23;1933;-72
2022/08/11 02:24:52;;;;;;;;;;;22.70;67.50;;;;;;6217034;23;627;-73
2022/08/11 02:27:19;;;;;;;;;;;22.70;67.50;;;;;;6189591;23;1200;-73
2022/08/11 02:29:48;;;;;;;;;;;22.70;67.50;;;;;;6190279;23;726;-73
2022/08/11 02:35:15;;;;;;;;;;;22.70;67.50;;;;;;6194103;23;587;-72
2022/08/11 02:37:50;;;;;;;;;;;22.60;67.50;;;;;;6215808;23;1936;-73
2022/08/11 02:40:19;;;;;;;;;;;22.60;67.50;;;;;;6189992;23;809;-73
2022/08/11 02:42:45;;;;;;;;;;;22.60;67.50;;;;;;6190357;23;812;-73
2022/08/11 02:45:10;;;;;;;;;;;22.60;67.50;;;;;;6216530;23;1010;-73
2022/08/11 02:47:41;;;;;;;;;;;22.60;67.50;;;;;;6215906;23;1184;-73
2022/08/11 02:50:10;;;;;;;;;;;22.60;67.50;;;;;;6189950;23;864;-73
2022/08/11 02:52:46;;;;;;;;;;;22.70;67.60;;;;;;6216045;23;903;-73
2022/08/11 02:55:18;;;;;;;;;;;22.60;67.50;;;;;;6189847;23;824;-73
2022/08/11 02:57:48;;;;;;;;;;;22.60;67.50;;;;;;6189848;23;1219;-73
2022/08/11 03:00:14;;;;;;;;;;;22.60;67.50;;;;;;6164963;23;1151;-73
2022/08/11 03:02:42;;;;;;;;;;;22.70;67.60;;;;;;6216221;23;1030;-72
2022/08/11 03:05:19;;;;;;;;;;;22.60;67.60;;;;;;6190214;23;902;-73
2022/08/11 03:07:56;;;;;;;;;;;22.60;67.50;;;;;;6215940;23;1180;-73
2022/08/11 03:10:28;;;;;;;;;;;22.60;67.60;;;;;;6216182;23;982;-72
2022/08/11 03:19:10;;;;;;;;;;;22.70;67.70;;;;;;6193766;23;646;-73
2022/08/11 03:21:39;;;;;;;;;;;22.70;67.70;;;;;;6216167;23;990;-73
2022/08/11 03:24:07;;;;;;;;;;;22.60;67.70;;;;;;6189585;23;844;-73
2022/08/11 03:26:53;;;;;;;;;;;22.60;67.70;;;;;;6189003;23;1191;-73
2022/08/11 03:29:21;;;;;;;;;;;22.60;67.70;;;;;;6216166;23;823;-73
2022/08/11 03:32:06;;;;;;;;;;;22.60;67.70;;;;;;6189453;23;812;-73
2022/08/11 03:34:36;;;;;;;;;;;22.60;67.70;;;;;;6215833;23;998;-73
2022/08/11 03:40:08;;;;;;;;;;;22.60;67.70;;;;;;6185835;23;724;-64
2022/08/11 03:42:52;;;;;;;;;;;22.60;67.70;;;;;;6185557;23;867;-64
2022/08/11 03:45:32;;;;;;;;;;;22.60;67.80;;;;;;6185804;23;875;-64
2022/08/11 03:48:09;;;;;;;;;;;22.60;67.80;;;;;;6185645;23;1234;-64
2022/08/11 03:50:46;;;;;;;;;;;22.60;67.80;;;;;;6185923;23;883;-64
2022/08/11 03:53:26;;;;;;;;;;;22.60;67.80;;;;;;6159529;23;875;-64
2022/08/11 03:56:10;;;;;;;;;;;22.60;67.80;;;;;;6185200;23;1897;-64
2022/08/11 03:58:54;;;;;;;;;;;22.60;67.80;;;;;;6185460;23;1207;-64
2022/08/11 04:01:20;;;;;;;;;;;22.60;67.80;;;;;;6185331;23;828;-65
2022/08/11 04:03:56;;;;;;;;;;;22.60;67.80;;;;;;6186014;23;804;-64
2022/08/11 04:06:37;;;;;;;;;;;22.60;67.80;;;;;;6159250;23;867;-64
2022/08/11 04:09:12;;;;;;;;;;;22.60;67.80;;;;;;6158932;23;1289;-64
2022/08/11 04:11:46;;;;;;;;;;;22.60;67.90;;;;;;6185370;23;804;-64
2022/08/11 04:17:26;;;;;;;;;;;22.60;67.90;;;;;;6184972;23;1924;-64
2022/08/11 04:20:08;;;;;;;;;;;22.60;67.90;;;;;;6185429;23;804;-64
2022/08/11 04:22:33;;;;;;;;;;;22.60;68.00;;;;;;6159273;23;899;-64
2022/08/11 04:25:15;;;;;;;;;;;22.60;67.90;;;;;;6185417;23;815;-64
2022/08/11 04:27:47;;;;;;;;;;;22.60;68.00;;;;;;6158437;23;1306;-64
2022/08/11 04:30:18;;;;;;;;;;;22.60;68.70;;;;;;6185352;23;800;-64
2022/08/11 04:32:52;;;;;;;;;;;22.60;68.00;;;;;;6185195;23;875;-64
2022/08/11 04:35:36;;;;;;;;;;;22.60;68.00;;;;;;6185291;23;1010;-63
2022/08/11 04:38:20;;;;;;;;;;;22.60;68.00;;;;;;6184918;23;1211;-63
2022/08/11 04:41:13;;;;;;;;;;;22.60;68.00;;;;;;6185468;23;958;-63
2022/08/11 04:43:45;;;;;;;;;;;22.60;68.00;;;;;;6185563;23;860;-63
2022/08/11 04:46:11;;;;;;;;;;;22.60;68.00;;;;;;6184833;23;986;-63
2022/08/11 05:03:39;;;;;;;;;;;22.60;65.30;;;;;;6162953;23;599;-65
2022/08/11 05:06:13;;;;;;;;;;;22.60;62.30;;;;;;6158502;23;1070;-65
2022/08/11 05:08:44;;;;;;;;;;;22.60;62.50;;;;;;6185002;23;1208;-65
2022/08/11 05:11:32;;;;;;;;;;;22.60;61.90;;;;;;6185079;23;943;-64
2022/08/11 05:36:18;;;;;;;;;;;22.50;59.80;;;;;;6184671;23;1897;-65
2022/08/11 05:58:04;;;;;;;;;;;22.50;58.20;;;;;;6164086;23;1250;-65
2022/08/11 06:00:29;;;;;;;;;;;22.50;59.40;;;;;;6160525;23;816;-67
2022/08/11 06:02:59;;;;;;;;;;;22.50;58.80;;;;;;6160407;23;1006;-61
2022/08/11 06:05:34;;;;;;;;;;;22.40;59.10;;;;;;6160706;23;816;-66
2022/08/11 06:08:00;;;;;;;;;;;22.50;59.00;;;;;;6160091;23;1209;-66
2022/08/11 06:10:31;;;;;;;;;;;22.40;59.50;;;;;;6185863;23;876;-64
2022/08/11 06:12:56;;;;;;;;;;;22.40;59.40;;;;;;6160251;23;855;-64
2022/08/11 06:15:22;;;;;;;;;;;22.40;59.50;;;;;;6185973;23;876;-65
2022/08/11 06:17:47;;;;;;;;;;;22.40;59.80;;;;;;6186077;23;1931;-67
2022/08/11 06:20:13;;;;;;;;;;;22.40;59.70;;;;;;6186571;23;833;-67
2022/08/11 06:22:40;;;;;;;;;;;22.40;59.50;;;;;;6186610;23;824;-65
2022/08/11 06:25:05;;;;;;;;;;;22.50;59.60;;;;;;6160023;23;813;-66
2022/08/11 06:27:31;;;;;;;;;;;22.40;59.70;;;;;;6159423;23;1207;-66
2022/08/11 06:29:58;;;;;;;;;;;22.50;59.70;;;;;;6136146;23;1045;-66
2022/08/11 06:32:27;;;;;;;;;;;22.50;59.20;;;;;;6186861;23;848;-66
2022/08/11 06:34:59;;;;;;;;;;;22.40;59.10;;;;;;6135543;23;1359;-66
2022/08/11 06:37:30;;;;;;;;;;;22.40;58.80;;;;;;6185564;23;1958;-66
2022/08/11 06:40:00;;;;;;;;;;;22.40;59.20;;;;;;6159894;23;1193;-66
2022/08/11 06:42:25;;;;;;;;;;;22.40;59.60;;;;;;6159989;23;819;-66
2022/08/11 06:45:00;;;;;;;;;;;22.40;59.10;;;;;;6186389;23;792;-66
2022/08/11 06:47:26;;;;;;;;;;;22.40;59.40;;;;;;6185902;23;1326;-66
2022/08/11 06:52:36;;;;;;;;;;;22.40;59.40;;;;;;6164053;23;618;-65
2022/08/11 07:00:26;;;;;;;;;;;22.40;59.40;;;;;;6186264;23;804;-66
2022/08/11 07:00:44;;;;;;;;;;;22.50;59.50;;;;;;6163501;23;1074;-65
2022/08/11 07:03:11;;;;;;;;;;;22.50;59.50;;;;;;6186187;23;807;-66
2022/08/11 07:05:36;;;;;;;;;;;22.50;59.30;;;;;;6159742;23;804;-66
2022/08/11 07:16:36;;;;;;;;;;;22.50;59.10;;;;;;6185728;23;1948;-66
2022/08/11 07:30:29;;;;;;;;;;;22.60;60.30;;;;;;6185697;23;614;-66
2022/08/11 07:32:56;;;;;;;;;;;22.60;60.60;;;;;;6159442;23;903;-63
2022/08/11 07:35:27;;;;;;;;;;;22.60;61.00;;;;;;6159873;23;790;-65
2022/08/11 07:37:55;;;;;;;;;;;22.70;61.20;;;;;;6185296;23;1889;-64
2022/08/11 07:40:21;;;;;;;;;;;22.70;61.50;;;;;;6159829;23;887;-64
2022/08/11 07:42:47;;;;;;;;;;;22.70;61.70;;;;;;6159896;23;870;-64
2022/08/11 07:53:26;;;;;;;;;;;22.70;62.30;;;;;;6163624;23;691;-65
2022/08/11 07:55:52;;;;;;;;;;;22.70;62.50;;;;;;6134427;23;1908;-63
2022/08/11 08:20:15;;;;;;;;;;;22.80;63.90;;;;;;6184260;23;871;-64
2022/08/11 08:22:40;;;;;;;;;;;22.80;64.00;;;;;;6184781;23;812;-63
2022/08/11 08:25:06;;;;;;;;;;;22.80;64.30;;;;;;6184201;23;891;-63
2022/08/11 08:27:32;;;;;;;;;;;22.90;64.50;;;;;;6157635;23;1683;-65
2022/08/11 08:32:43;;;;;;;;;;;22.90;64.50;;;;;;6163110;23;719;-65
2022/08/11 08:35:11;;;;;;;;;;;22.90;64.60;;;;;;6185462;23;808;-64
2022/08/11 08:37:36;;;;;;;;;;;22.90;64.70;;;;;;6184733;23;1945;-65
2022/08/11 08:40:02;;;;;;;;;;;22.90;64.80;;;;;;6159226;23;933;-64
2022/08/11 08:42:29;;;;;;;;;;;22.90;64.90;;;;;;6134367;23;1714;-64
2022/08/11 08:45:00;;;;;;;;;;;22.90;65.00;;;;;;6159129;23;865;-65
2022/08/11 08:47:26;;;;;;;;;;;22.80;65.00;;;;;;6158637;23;1222;-64
2022/08/11 08:49:55;;;;;;;;;;;22.90;65.10;;;;;;6159396;23;840;-65
2022/08/11 08:52:21;;;;;;;;;;;22.90;66.50;;;;;;6185332;23;864;-64
2022/08/11 08:54:56;;;;;;;;;;;22.90;65.60;;;;;;6185341;23;785;-64
2022/08/11 08:57:22;;;;;;;;;;;22.90;65.50;;;;;;6184649;23;1949;-64
2022/08/11 08:59:48;;;;;;;;;;;22.90;65.60;;;;;;6159040;23;808;-65
2022/08/11 09:02:13;;;;;;;;;;;22.90;65.80;;;;;;6185598;23;906;-64
2022/08/11 09:04:39;;;;;;;;;;;22.90;65.80;;;;;;6185414;23;991;-62
2022/08/11 09:07:08;;;;;;;;;;;23.00;66.00;;;;;;6158907;23;1259;-64
2022/08/11 09:09:33;;;;;;;;;;;23.00;66.00;;;;;;6185046;23;737;-65
2022/08/11 09:11:59;;;;;;;;;;;23.00;66.00;;;;;;6185217;23;888;-62
2022/08/11 09:15:10;;;;;;;;;;;23.00;66.10;;;;;;6185493;23;820;-62
2022/08/11 09:17:27;;;;;;;;;;;23.00;66.10;;;;;;6158143;23;1892;-63
2022/08/11 09:19:59;;;;;;;;;;;23.00;66.10;;;;;;6159281;23;879;-64
2022/08/11 09:27:57;;;;;;;;;;;23.00;66.30;;;;;;6164594;23;1329;-64
2022/08/11 09:30:24;;;;;;;;;;;23.00;66.30;;;;;;6187249;23;966;-64
2022/08/11 09:32:56;;;;;;;;;;;23.00;66.50;;;;;;6136395;23;1188;-64
2022/08/11 09:35:28;;;;;;;;;;;23.00;67.00;;;;;;6187222;23;808;-64
2022/08/11 09:40:39;;;;;;;;;;;23.10;67.10;;;;;;6165004;23;704;-65
2022/08/11 09:45:50;;;;;;;;;;;23.10;67.10;;;;;;6164450;23;727;-64
2022/08/11 09:48:17;;;;;;;;;;;23.10;67.50;;;;;;6187777;23;1243;-67
2022/08/11 09:50:44;;;;;;;;;;;23.10;67.60;;;;;;6160509;23;816;-67
2022/08/11 09:53:11;;;;;;;;;;;23.20;68.10;;;;;;6160588;23;892;-67
2022/08/11 09:55:37;;;;;;;;;;;23.20;68.10;;;;;;6160486;23;1901;-64
2022/08/11 09:58:15;;;;;;;;;;;23.20;68.20;;;;;;6161345;23;1273;-67
2022/08/11 10:03:10;;;;;;;;;;;23.20;68.60;;;;;;6243850;23;751;-67
2022/08/11 10:08:20;;;;;;;;;;;23.20;69.20;;;;;;6246629;23;1302;-66
2022/08/11 10:10:46;;;;;;;;;;;23.30;69.40;;;;;;6218508;23;776;-66
2022/08/11 10:13:16;;;;;;;;;;;23.30;69.10;;;;;;6219983;23;816;-65
2022/08/11 10:15:42;;;;;;;;;;;23.30;68.90;;;;;;6219804;23;1900;-66
2022/08/11 10:21:07;;;;;;;;;;;23.30;69.00;;;;;;6224339;23;698;-66
2022/08/11 10:33:58;;;;;;;;;;;23.30;70.30;;;;;;6224186;23;1322;-68
2022/08/11 10:34:32;;;;;;;;;;;23.30;70.40;;;;;;6223350;23;976;-66
2022/08/11 10:37:01;;;;;;;;;;;23.30;70.30;;;;;;6219449;23;1935;-66
2022/08/11 10:39:27;;;;;;;;;;;23.30;70.10;;;;;;6220713;23;951;-66
2022/08/11 10:44:43;;;;;;;;;;;23.30;70.20;;;;;;6222886;23;688;-68
2022/08/11 11:00:51;;;;;;;;;;;23.40;70.80;;;;;;6223680;23;872;-68
2022/08/11 11:03:16;;;;;;;;;;;23.40;70.80;;;;;;6219568;23;1344;-68
2022/08/11 11:05:42;;;;;;;;;;;23.40;70.70;;;;;;6246160;23;851;-68
2022/08/11 11:08:51;;;;;;;;;;;23.40;70.40;;;;;;6219773;23;1223;-68
2022/08/11 11:10:57;;;;;;;;;;;23.40;70.20;;;;;;6223822;23;1261;-69
2022/08/11 11:18:50;;;;;;;;;;;23.40;70.20;;;;;;6223576;23;1251;-68
2022/08/11 11:21:17;;;;;;;;;;;23.40;70.70;;;;;;6219679;23;832;-68
2022/08/11 11:23:46;;;;;;;;;;;23.40;70.40;;;;;;6246475;23;900;-69
2022/08/11 11:26:13;;;;;;;;;;;23.40;70.30;;;;;;6246350;23;867;-69
2022/08/11 11:28:57;;;;;;;;;;;23.40;70.30;;;;;;6247136;23;1282;-70
2022/08/11 11:31:29;;;;;;;;;;;23.40;70.30;;;;;;6246786;23;823;-69
2022/08/11 11:34:00;;;;;;;;;;;23.40;70.30;;;;;;6246163;23;974;-69
2022/08/11 11:36:32;;;;;;;;;;;23.40;70.20;;;;;;6219269;23;1885;-69
2022/08/11 11:38:57;;;;;;;;;;;23.40;70.20;;;;;;6246203;23;1196;-69
2022/08/11 11:41:26;;;;;;;;;;;23.40;70.20;;;;;;6246474;23;795;-69
2022/08/11 11:43:55;;;;;;;;;;;23.30;70.50;;;;;;6246033;23;831;-69
2022/08/11 11:46:21;;;;;;;;;;;23.40;70.70;;;;;;6194426;23;1303;-69
2022/08/11 11:48:46;;;;;;;;;;;23.40;70.70;;;;;;6219415;23;1192;-68
2022/08/11 11:51:12;;;;;;;;;;;23.40;70.70;;;;;;6219455;23;785;-68
2022/08/11 11:53:39;;;;;;;;;;;23.40;70.80;;;;;;6220114;23;864;-69
2022/08/11 11:56:04;;;;;;;;;;;23.40;70.80;;;;;;6219528;23;1926;-68
2022/08/11 12:01:18;;;;;;;;;;;23.40;70.80;;;;;;6223649;23;890;-69
2022/08/11 12:03:45;;;;;;;;;;;23.40;70.80;;;;;;6245716;23;803;-69
2022/08/11 12:06:13;;;;;;;;;;;23.40;67.50;;;;;;6219126;23;808;-70
2022/08/11 12:08:39;;;;;;;;;;;23.40;62.70;;;;;;6218806;23;1242;-70
2022/08/11 12:13:55;;;;;;;;;;;23.40;58.10;;;;;;6245756;23;575;-69
2022/08/11 12:16:21;;;;;;;;;;;23.40;59.70;;;;;;6218952;23;1935;-69
2022/08/11 12:18:48;;;;;;;;;;;23.40;61.60;;;;;;6218986;23;1298;-69
2022/08/11 12:21:14;;;;;;;;;;;23.40;61.80;;;;;;6245716;23;899;-69
2022/08/11 12:29:08;;;;;;;;;;;23.40;59.40;;;;;;6245217;23;1250;-69
2022/08/11 12:31:34;;;;;;;;;;;23.40;59.60;;;;;;6218930;23;938;-71
2022/08/11 12:34:01;;;;;;;;;;;23.30;58.90;;;;;;6218623;23;891;-69
2022/08/11 12:36:26;;;;;;;;;;;23.40;58.60;;;;;;6218564;23;1892;-68
2022/08/11 12:38:52;;;;;;;;;;;23.30;58.20;;;;;;6193295;23;1217;-69
2022/08/11 12:46:46;;;;;;;;;;;23.30;58.80;;;;;;6222703;23;583;-69
2022/08/11 12:52:00;;;;;;;;;;;23.30;54.70;;;;;;6223051;23;631;-69
2022/08/11 12:54:27;;;;;;;;;;;23.30;55.70;;;;;;6219556;23;804;-69
2022/08/11 13:05:15;;;;;;;;;;;23.30;54.90;;;;;;6245558;23;590;-69
2022/08/11 13:07:44;;;;;;;;;;;23.30;52.70;;;;;;6218409;23;1208;-69
2022/08/11 13:10:10;;;;;;;;;;;23.30;53.50;;;;;;6218738;23;1061;-68
2022/08/11 13:12:47;;;;;;;;;;;23.30;52.90;;;;;;6218945;23;808;-68
2022/08/11 13:15:14;;;;;;;;;;;23.30;54.00;;;;;;6221241;23;799;-68
2022/08/11 13:17:39;;;;;;;;;;;23.30;54.90;;;;;;6217983;23;1905;-68
2022/08/11 13:20:05;;;;;;;;;;;23.30;53.40;;;;;;6218596;23;926;-69
2022/08/11 13:22:30;;;;;;;;;;;23.30;53.60;;;;;;6218884;23;1010;-68
2022/08/11 13:24:56;;;;;;;;;;;23.30;54.00;;;;;;6245420;23;1037;-68
2022/08/11 13:27:21;;;;;;;;;;;23.30;53.50;;;;;;6244916;23;1187;-68
2022/08/11 13:29:47;;;;;;;;;;;23.30;53.70;;;;;;6245396;23;1139;-71
2022/08/11 13:32:13;;;;;;;;;;;23.30;54.00;;;;;;6218884;23;741;-71
2022/08/11 13:34:41;;;;;;;;;;;23.30;53.80;;;;;;6219094;23;753;-70
2022/08/11 13:37:06;;;;;;;;;;;23.30;52.90;;;;;;6245005;23;1920;-70
2022/08/11 13:39:32;;;;;;;;;;;23.30;52.40;;;;;;6245449;23;805;-69
2022/08/11 13:41:58;;;;;;;;;;;23.30;52.80;;;;;;6218713;23;896;-71
2022/08/11 13:44:25;;;;;;;;;;;23.30;51.80;;;;;;6218814;23;859;-70
2022/08/11 13:46:52;;;;;;;;;;;23.30;51.00;;;;;;6245273;23;859;-70
2022/08/11 13:49:17;;;;;;;;;;;23.30;51.50;;;;;;6245190;23;1235;-68
2022/08/11 13:51:43;;;;;;;;;;;23.30;49.70;;;;;;6245554;23;896;-68
2022/08/11 13:54:09;;;;;;;;;;;23.30;48.50;;;;;;6218855;23;769;-69
2022/08/11 13:56:35;;;;;;;;;;;23.30;50.50;;;;;;6218284;23;1978;-68
2022/08/11 13:59:01;;;;;;;;;;;23.30;51.20;;;;;;6218558;23;1254;-69
2022/08/11 14:01:30;;;;;;;;;;;23.40;50.10;;;;;;6245252;23;871;-70
2022/08/11 14:03:57;;;;;;;;;;;23.40;50.50;;;;;;6218730;23;847;-70
2022/08/11 14:06:23;;;;;;;;;;;23.40;50.40;;;;;;6244799;23;741;-70
2022/08/11 14:08:49;;;;;;;;;;;23.40;51.70;;;;;;6218352;23;1192;-70
2022/08/11 14:13:58;;;;;;;;;;;23.40;52.90;;;;;;6224346;23;630;-70
2022/08/11 14:16:28;;;;;;;;;;;23.40;51.90;;;;;;6220052;23;1900;-70
2022/08/11 14:18:56;;;;;;;;;;;23.40;51.80;;;;;;6220077;23;1213;-69
2022/08/11 14:24:06;;;;;;;;;;;23.40;53.10;;;;;;6224345;23;607;-70
2022/08/11 14:26:37;;;;;;;;;;;23.40;53.00;;;;;;6220054;23;1013;-69
2022/08/11 14:29:21;;;;;;;;;;;23.30;50.90;;;;;;6221687;23;1594;-70
2022/08/11 14:31:47;;;;;;;;;;;23.30;52.00;;;;;;6220826;23;721;-70
2022/08/11 14:34:13;;;;;;;;;;;23.30;52.70;;;;;;6247198;23;828;-70
2022/08/11 14:36:39;;;;;;;;;;;23.30;52.80;;;;;;6246377;23;1940;-69
2022/08/11 14:39:12;;;;;;;;;;;23.30;53.40;;;;;;6219723;23;1278;-70
2022/08/11 14:47:07;;;;;;;;;;;23.30;54.20;;;;;;6246119;23;1251;-70
2022/08/11 14:49:33;;;;;;;;;;;23.30;55.80;;;;;;6246848;23;843;-69
2022/08/11 14:51:59;;;;;;;;;;;23.20;56.80;;;;;;6246781;23;830;-69
2022/08/11 14:57:09;;;;;;;;;;;23.20;57.50;;;;;;6223486;23;1885;-68
2022/08/11 14:59:34;;;;;;;;;;;23.20;56.60;;;;;;6246405;23;939;-69
2022/08/11 15:04:44;;;;;;;;;;;23.20;53.50;;;;;;6223883;23;635;-69
2022/08/11 15:07:09;;;;;;;;;;;23.20;51.00;;;;;;6246188;23;1270;-69
2022/08/11 15:09:35;;;;;;;;;;;23.20;49.40;;;;;;6246637;23;784;-69
2022/08/11 15:12:15;;;;;;;;;;;23.20;49.80;;;;;;6219840;23;828;-69
2022/08/11 15:17:25;;;;;;;;;;;23.20;49.90;;;;;;6246094;23;1897;-68
2022/08/11 15:25:19;;;;;;;;;;;23.20;49.00;;;;;;6223786;23;591;-70
2022/08/11 15:38:43;;;;;;;;;;;23.20;49.30;;;;;;6223988;23;1346;-70
2022/08/11 15:46:39;;;;;;;;;;;23.20;48.60;;;;;;6223314;23;619;-70
2022/08/11 15:49:10;;;;;;;;;;;23.20;48.40;;;;;;6219282;23;1271;-69
2022/08/11 15:51:36;;;;;;;;;;;23.10;48.90;;;;;;6245288;23;773;-70
2022/08/11 15:54:02;;;;;;;;;;;23.10;49.40;;;;;;6246107;23;816;-69
2022/08/11 15:56:28;;;;;;;;;;;23.10;49.10;;;;;;6218887;23;1897;-69
2022/08/11 16:04:25;;;;;;;;;;;23.10;48.90;;;;;;6223174;23;630;-70
2022/08/11 16:06:51;;;;;;;;;;;23.10;48.40;;;;;;6193303;23;1183;-70
2022/08/11 16:09:18;;;;;;;;;;;23.10;48.40;;;;;;6245886;23;1180;-70
2022/08/11 16:11:43;;;;;;;;;;;23.10;47.90;;;;;;6219432;23;1235;-70
2022/08/11 16:16:56;;;;;;;;;;;23.20;43.10;;;;;;6148211;23;1940;-70
2022/08/11 16:19:22;;;;;;;;;;;23.20;44.30;;;;;;6245863;23;1172;-70
2022/08/11 16:21:49;;;;;;;;;;;23.20;44.70;;;;;;6219185;23;810;-70
2022/08/11 16:24:14;;;;;;;;;;;23.20;44.80;;;;;;6219612;23;872;-70
2022/08/11 16:26:40;;;;;;;;;;;23.20;45.00;;;;;;6218855;23;1031;-70
2022/08/11 16:29:05;;;;;;;;;;;23.20;46.00;;;;;;6218090;23;1290;-70
2022/08/11 16:31:32;;;;;;;;;;;23.20;46.30;;;;;;6217589;23;1006;-69
2022/08/11 16:33:57;;;;;;;;;;;23.20;47.00;;;;;;6218070;23;820;-70
2022/08/11 16:39:07;;;;;;;;;;;23.20;46.60;;;;;;6244181;23;1306;-70
2022/08/11 16:47:03;;;;;;;;;;;23.10;46.80;;;;;;6222799;23;595;-70
2022/08/11 16:49:36;;;;;;;;;;;23.10;46.70;;;;;;6245610;23;859;-69
2022/08/11 16:52:03;;;;;;;;;;;23.10;47.80;;;;;;6245667;23;804;-70
2022/08/11 16:54:29;;;;;;;;;;;23.10;49.30;;;;;;6219191;23;796;-69
2022/08/11 16:56:55;;;;;;;;;;;23.10;48.60;;;;;;6217416;23;1924;-70
2022/08/11 16:59:28;;;;;;;;;;;23.10;49.70;;;;;;6218265;23;1263;-70
2022/08/11 17:02:01;;;;;;;;;;;23.10;51.40;;;;;;6216775;23;931;-70
2022/08/11 17:18:38;;;;;;;;;;;23.00;50.30;;;;;;6245231;23;1239;-68
2022/08/11 17:21:02;;;;;;;;;;;23.00;52.50;;;;;;6245264;23;1018;-69
2022/08/11 17:23:45;;;;;;;;;;;23.00;54.40;;;;;;6218281;23;1002;-68
2022/08/11 17:26:13;;;;;;;;;;;23.00;54.30;;;;;;6243808;23;832;-69
2022/08/11 17:28:40;;;;;;;;;;;23.00;54.20;;;;;;6218024;23;1263;-69
2022/08/11 17:36:35;;;;;;;;;;;22.90;55.70;;;;;;6222286;23;1947;-70
2022/08/11 17:39:00;;;;;;;;;;;22.90;55.90;;;;;;6244964;23;1242;-69
2022/08/11 17:49:38;;;;;;;;;;;22.90;56.60;;;;;;6247162;23;594;-69
2022/08/11 18:00:16;;;;;;;;;;;22.90;57.40;;;;;;6224293;23;650;-69
2022/08/11 18:05:30;;;;;;;;;;;22.80;57.70;;;;;;6224153;23;623;-69
